MGGTMMTP

Guest
Details From MGGT - La Aurora
To MMTP - TAPACHULA INTL
Flight Number -
Tags generated
Created
Modified
Stats Distance 108 nm / 200 km
Max Altitude 2,700 ft / 823 m
Waypoints 3
Social Downloads 0
Likes 0
Share VATSIM

Download

Looking for another format? Having issues loading an existing format? Contact us
Advertisement - Login to hide

Notes

Basic altitude profile: - Ascent Rate: 2500ft/min - Ascent Speed: 250kts - Cruise Altitude: 35000ft - Cruise Speed: 420kts - Descent Rate: 1500ft/min - Descent Speed: 250kts Options: - Use NATs: yes - Use PACOTS: yes - Use low airways: yes - Use high airways: yes

Route

MGGT OCASO MMTP

ID Type Via Altitude Latitude Longitude Leg Dist Tot Dist Heading (true) Name
O MGGT APT - 0 ft / 0 m 14.58327˚ -90.52747˚ - 0 nm - La Aurora
OCASO FIX - 2,700 ft / 823 m 14.76833˚ -92.15000˚ 94 nm 94 nm 277° / 277° -
O MMTP APT - 0 ft / 0 m 14.79434˚ -92.37002˚ 12 nm 107 nm 277° / 277° TAPACHULA INTL

Altitude Profile

Advertisement - Login to hide

MGGT

Details ICAO MGGT (GUA)
Name La Aurora
Region Guatemala
Timezone America/Guatemala (UTC-6.0)
Stats Elevation 4,952 ft / 1,509 m (AMSL)
Location 14.583272° -90.527473°
Runways 1
Magnetic Variation 1.070° E

METAR

MGGT 151600Z 00000KT 8000 FEW200 20/14 Q1026 A3030 HZ

Decode

TAF

TAF TAF MGGT 151100Z 1512/1612 VRB03KT 3000 BR OVC004 TX25/1520Z TN11/1512Z BECMG 1515/1517 06008KT 8000 FEW018 BECMG 1520/1522 18008KT SCT020 BECMG 1601/1603 03008KT SCT016

Decode

Departure Runways

ID Width Length Bearing (true) Bearing (mag) Surface Threshold Offset Overrun Length
01 196 ft / 60 m 9,841 ft / 3,000 m 17.29° 16.22° Asphalt 0 ft / 0 m 0 ft / 0 m
19 196 ft / 60 m 9,841 ft / 3,000 m 197.29° 196.22° Asphalt 722 ft / 220 m 0 ft / 0 m

MMTP

Details ICAO MMTP (TAP)
Name TAPACHULA INTL
Region Mexico
Timezone America/Mexico_City (UTC-6.0)
Stats Elevation 97 ft / 30 m (AMSL)
Location 14.794337° -92.370024°
Runways 1
Magnetic Variation 1.982° E

METAR

MMTP 151541Z 31007KT 10SM SKC 29/19 A2994 RMK HZY

Decode

TAF

TAF MMTP 151116Z 1512/1618 00000KT P6SM SKC FM151800 24010KT P6SM SCT030 FM160100 00000KT P6SM SKC FM161700 24010KT P6SM SCT020 SCT100

Decode

Destination Runways

ID Width Length Bearing (true) Bearing (mag) Surface Threshold Offset Overrun Length
05 148 ft / 45 m 6,577 ft / 2,005 m 55.38° 53.40° Asphalt 0 ft / 0 m 198 ft / 60 m
23 148 ft / 45 m 6,577 ft / 2,005 m 235.38° 233.40° Asphalt 0 ft / 0 m 198 ft / 60 m

Popular Alternatives